Terminal Aerodrome Forecast
Issued by NWS

Home | Current Version | Previous Version | Text Only | Print | Product List | Glossary Off
Versions: 1 2 3 4 5 6 7 8 9 10 11 12 13 14

000
FTUS43 KMPX 140500
TAFAXN
TAF
KAXN 140520Z 1406/1506 21011KT P6SM BKN060
     FM140800 25008KT P6SM SKC
     FM141500 29010KT P6SM SCT200
     FM150000 30004KT P6SM BKN150=

USA.gov is the U.S. government's official web portal to all federal, state and local government web resources and services.